Time;durP1;ratioP1;P1;durP2;ratioP2;P2;SDS_P1;SDS_P2;PMS_P1;PMS_P2;Temp;Humidity;BMP_temperature;BMP_pressure;BME280_temperature;BME280_humidity;BME280_pressure;Samples;Min_cycle;Max_cycle;Signal;HPM_P1;HPM_P2
2022/08/29 00:00:18;;;;;;;5.85;5.40;;;23.10;70.30;;;;;;5051368;28;20625;-81
2022/08/29 00:02:46;;;;;;;5.50;4.85;;;23.10;70.50;;;;;;5051742;28;20175;-81
2022/08/29 00:05:12;;;;;;;6.70;6.15;;;23.10;70.50;;;;;;5055104;28;20180;-81
2022/08/29 00:07:38;;;;;;;6.65;5.72;;;23.00;71.40;;;;;;5045680;28;20215;-81
2022/08/29 00:10:05;;;;;;;6.07;5.57;;;23.00;70.80;;;;;;5052685;28;20237;-82
2022/08/29 00:12:31;;;;;;;6.95;5.40;;;23.00;71.30;;;;;;5047753;28;20741;-82
2022/08/29 00:14:56;;;;;;;5.68;5.32;;;22.90;70.10;;;;;;5050323;28;20183;-81
2022/08/29 00:17:22;;;;;;;6.95;5.93;;;22.90;70.40;;;;;;5047273;28;20240;-81
2022/08/29 00:19:48;;;;;;;5.32;4.95;;;22.80;71.30;;;;;;5052355;28;20179;-81
2022/08/29 00:22:13;;;;;;;11.30;5.55;;;22.80;70.60;;;;;;5052722;28;20179;-81
2022/08/29 00:24:39;;;;;;;5.80;5.20;;;22.80;71.70;;;;;;5046328;28;20277;-81
2022/08/29 00:27:05;;;;;;;7.80;5.22;;;22.70;71.40;;;;;;5050604;28;20288;-81
2022/08/29 00:29:31;;;;;;;8.63;4.97;;;22.70;71.50;;;;;;5050800;28;20700;-82
2022/08/29 00:31:56;;;;;;;7.00;5.30;;;22.70;70.50;;;;;;5046841;28;20191;-81
2022/08/29 00:34:22;;;;;;;6.68;5.68;;;22.70;72.60;;;;;;5050240;28;20642;-79
2022/08/29 00:36:48;;;;;;;7.13;5.03;;;22.70;73.00;;;;;;5046712;28;20194;-82
2022/08/29 00:39:13;;;;;;;6.85;5.28;;;22.60;72.80;;;;;;5050250;28;20183;-81
2022/08/29 00:41:39;;;;;;;6.68;5.25;;;22.60;74.00;;;;;;5047330;28;20215;-82
2022/08/29 00:44:05;;;;;;;6.15;5.60;;;22.50;73.00;;;;;;5049036;28;20186;-80
2022/08/29 00:46:30;;;;;;;6.32;5.30;;;22.50;72.90;;;;;;5049943;28;20689;-79
2022/08/29 00:49:01;;;;;;;11.10;6.25;;;22.50;73.80;;;;;;5049373;28;20662;-82
2022/08/29 00:51:27;;;;;;;5.40;4.90;;;22.50;74.40;;;;;;5051310;28;20191;-81
2022/08/29 00:53:58;;;;;;;5.35;4.88;;;22.40;75.10;;;;;;5050319;28;20195;-80
2022/08/29 00:56:25;;;;;;;5.57;5.07;;;22.30;74.60;;;;;;5050141;28;20219;-80
2022/08/29 00:58:56;;;;;;;5.65;5.10;;;22.30;74.60;;;;;;5047083;28;20731;-80
2022/08/29 01:01:22;;;;;;;5.60;4.88;;;22.20;74.00;;;;;;5052730;28;20191;-81
2022/08/29 01:03:50;;;;;;;5.90;5.30;;;22.10;74.80;;;;;;5050240;28;20661;-81
2022/08/29 01:06:16;;;;;;;5.05;4.55;;;22.10;74.80;;;;;;5051534;28;20187;-80
2022/08/29 01:08:42;;;;;;;5.50;5.00;;;22.00;74.00;;;;;;5046620;28;20192;-80
2022/08/29 01:13:58;;;;;;;5.45;5.07;;;21.90;73.90;;;;;;5051123;28;20737;-80
2022/08/29 01:16:25;;;;;;;5.38;5.00;;;21.80;74.40;;;;;;5049625;28;20180;-80
2022/08/29 01:18:55;;;;;;;8.80;5.78;;;21.80;73.90;;;;;;5056243;28;20334;-80
2022/08/29 01:21:33;;;;;;;6.00;4.93;;;21.80;74.10;;;;;;5051271;28;20269;-80
2022/08/29 01:24:14;;;;;;;5.05;4.65;;;21.80;73.30;;;;;;5054651;28;20215;-80
2022/08/29 01:26:41;;;;;;;5.00;4.70;;;21.80;73.80;;;;;;5052666;28;20187;-80
2022/08/29 01:29:07;;;;;;;10.02;4.95;;;21.80;73.50;;;;;;5057650;28;20266;-80
2022/08/29 01:31:43;;;;;;;4.90;4.60;;;21.70;72.80;;;;;;5054476;28;20191;-80
2022/08/29 01:34:10;;;;;;;4.38;4.15;;;21.70;72.10;;;;;;5051352;28;20734;-81
2022/08/29 01:37:03;;;;;;;5.68;4.97;;;21.70;72.90;;;;;;5050308;28;20579;-80
2022/08/29 01:39:36;;;;;;;4.57;4.15;;;21.70;73.00;;;;;;4995741;28;20201;-80
2022/08/29 01:42:12;;;;;;;6.28;5.30;;;21.70;73.20;;;;;;4997633;28;20207;-80
2022/08/29 01:44:39;;;;;;;7.10;5.35;;;21.70;73.70;;;;;;4992648;28;20704;-80
2022/08/29 01:47:06;;;;;;;5.97;5.43;;;21.70;74.40;;;;;;4995753;28;20199;-79
2022/08/29 01:49:34;;;;;;;5.65;5.10;;;21.70;73.40;;;;;;4994341;28;20704;-79
2022/08/29 01:52:00;;;;;;;4.80;4.60;;;21.70;74.20;;;;;;4991111;28;20616;-80
2022/08/29 01:54:25;;;;;;;6.43;5.45;;;21.70;74.30;;;;;;4998272;28;20220;-79
2022/08/29 01:56:53;;;;;;;5.88;5.28;;;21.70;75.10;;;;;;4992400;28;20233;-80
2022/08/29 01:59:22;;;;;;;7.80;4.95;;;21.70;74.40;;;;;;4993200;28;20185;-80
2022/08/29 02:02:08;;;;;;;5.65;5.13;;;21.60;74.20;;;;;;4980706;28;20228;-80
2022/08/29 02:04:34;;;;;;;8.68;5.45;;;21.60;73.60;;;;;;4995578;28;20260;-80
2022/08/29 02:07:01;;;;;;;4.97;4.60;;;21.60;74.40;;;;;;4995398;28;20197;-80
2022/08/29 02:09:27;;;;;;;5.70;5.13;;;21.60;74.20;;;;;;4996526;28;20235;-80
2022/08/29 02:11:54;;;;;;;8.43;5.85;;;21.50;74.40;;;;;;4995576;28;20590;-80
2022/08/29 02:14:22;;;;;;;5.57;5.07;;;21.50;74.90;;;;;;4992501;28;21000;-80
2022/08/29 02:16:48;;;;;;;6.00;5.50;;;21.50;74.80;;;;;;5018739;28;20282;-80
2022/08/29 02:19:14;;;;;;;6.13;5.63;;;21.50;75.60;;;;;;5054095;28;20175;-80
2022/08/29 02:21:40;;;;;;;5.30;5.07;;;21.50;76.00;;;;;;5054075;28;20180;-80
2022/08/29 02:24:06;;;;;;;5.82;5.15;;;21.50;76.00;;;;;;5051461;28;20846;-81
2022/08/29 02:26:32;;;;;;;7.72;5.05;;;21.50;76.40;;;;;;5053491;28;20919;-81
2022/08/29 02:28:58;;;;;;;8.50;5.35;;;21.40;76.50;;;;;;5051688;28;20248;-80
2022/08/29 02:31:24;;;;;;;6.10;5.50;;;21.50;76.90;;;;;;5048067;28;20211;-80
2022/08/29 02:33:51;;;;;;;6.03;4.75;;;21.40;77.10;;;;;;5053812;28;20215;-82
2022/08/29 02:36:17;;;;;;;6.78;5.40;;;21.40;77.80;;;;;;5053790;28;20184;-80
2022/08/29 02:38:43;;;;;;;5.45;5.05;;;21.40;76.80;;;;;;5047894;28;20301;-81
2022/08/29 02:41:10;;;;;;;5.15;4.80;;;21.40;77.00;;;;;;5072341;28;20270;-81
2022/08/29 02:43:36;;;;;;;5.22;4.80;;;21.30;76.50;;;;;;5051234;28;20179;-81
2022/08/29 02:46:03;;;;;;;6.60;4.60;;;21.30;76.80;;;;;;5051749;28;20188;-81
2022/08/29 02:48:29;;;;;;;6.15;4.88;;;21.20;77.30;;;;;;5048186;28;20198;-80
2022/08/29 02:50:57;;;;;;;5.55;5.18;;;21.20;77.10;;;;;;5051948;28;20250;-80
2022/08/29 02:53:25;;;;;;;5.57;4.90;;;21.20;77.10;;;;;;5049359;28;20184;-80
2022/08/29 02:55:52;;;;;;;6.07;5.65;;;21.20;77.10;;;;;;5047783;28;20190;-80
2022/08/29 02:58:19;;;;;;;6.22;5.72;;;21.20;77.60;;;;;;5053151;28;20559;-80
2022/08/29 03:00:45;;;;;;;6.55;5.55;;;21.10;77.70;;;;;;5053595;28;20176;-80
2022/08/29 03:03:11;;;;;;;7.03;5.82;;;21.10;77.80;;;;;;5049125;28;20245;-80
2022/08/29 03:05:38;;;;;;;5.97;5.38;;;21.10;78.30;;;;;;5051209;28;20266;-80
2022/08/29 03:08:09;;;;;;;5.65;5.00;;;21.10;78.20;;;;;;5050106;28;20187;-80
2022/08/29 03:10:35;;;;;;;6.80;5.55;;;21.10;77.20;;;;;;5049949;28;20943;-80
2022/08/29 03:13:02;;;;;;;6.32;5.68;;;21.10;78.20;;;;;;5050385;28;20606;-80
2022/08/29 03:15:28;;;;;;;6.07;5.50;;;21.00;78.30;;;;;;5050194;28;20183;-79
2022/08/29 03:17:54;;;;;;;6.40;5.93;;;21.00;78.40;;;;;;5048167;28;22312;-80
2022/08/29 03:20:22;;;;;;;8.32;5.35;;;21.00;78.60;;;;;;5049838;28;20183;-80
2022/08/29 03:22:48;;;;;;;5.78;5.28;;;21.00;78.60;;;;;;5047645;28;20187;-80
2022/08/29 03:25:15;;;;;;;10.48;5.55;;;21.00;78.40;;;;;;5055115;28;20662;-80
2022/08/29 03:27:41;;;;;;;5.82;5.35;;;21.00;78.30;;;;;;5050217;28;20237;-81
2022/08/29 03:30:09;;;;;;;9.45;5.10;;;21.00;78.60;;;;;;5049612;28;20179;-80
2022/08/29 03:32:35;;;;;;;6.15;5.70;;;20.90;78.50;;;;;;5049366;28;20194;-80
2022/08/29 03:35:00;;;;;;;5.32;4.93;;;20.90;78.70;;;;;;5049950;28;20179;-80
2022/08/29 03:37:26;;;;;;;10.65;5.68;;;20.90;78.80;;;;;;5048907;28;20660;-81
2022/08/29 03:39:53;;;;;;;5.82;5.53;;;20.90;78.50;;;;;;5043811;28;20180;-80
2022/08/29 03:42:20;;;;;;;8.27;5.60;;;20.80;77.40;;;;;;5050037;28;20183;-80
2022/08/29 03:44:46;;;;;;;5.57;5.18;;;20.80;78.50;;;;;;5051438;28;20215;-80
2022/08/29 03:47:12;;;;;;;6.97;5.47;;;20.70;78.20;;;;;;5051105;28;20192;-80
2022/08/29 03:49:38;;;;;;;6.28;5.28;;;20.80;78.70;;;;;;5050774;28;20190;-80
2022/08/29 03:52:05;;;;;;;5.75;5.15;;;20.80;78.60;;;;;;5050126;28;20186;-80
2022/08/29 03:54:30;;;;;;;4.43;4.13;;;20.70;78.30;;;;;;5050694;28;20179;-80
2022/08/29 03:56:56;;;;;;;5.75;5.20;;;20.70;77.80;;;;;;5051694;28;20332;-80
2022/08/29 03:59:22;;;;;;;5.50;4.97;;;20.70;77.30;;;;;;5049052;28;20180;-80
2022/08/29 04:01:48;;;;;;;5.57;5.20;;;20.70;77.70;;;;;;5050561;28;20184;-80
2022/08/29 04:07:02;;;;;;;5.95;5.15;;;20.70;78.10;;;;;;5049344;28;20708;-79
2022/08/29 04:09:29;;;;;;;5.60;5.20;;;20.60;77.10;;;;;;5050139;28;20190;-80
2022/08/29 04:11:56;;;;;;;5.95;5.55;;;20.60;77.60;;;;;;5052649;28;20198;-83
2022/08/29 04:14:22;;;;;;;5.95;5.57;;;20.60;77.00;;;;;;5052448;28;20182;-81
2022/08/29 04:16:51;;;;;;;5.20;4.80;;;20.60;77.60;;;;;;5051344;28;20720;-82
2022/08/29 04:19:20;;;;;;;6.68;6.03;;;20.70;77.40;;;;;;5049447;28;20262;-81
2022/08/29 04:21:47;;;;;;;8.43;5.85;;;20.60;76.80;;;;;;5051891;28;20189;-80
2022/08/29 04:24:14;;;;;;;6.20;5.70;;;20.60;76.60;;;;;;5054167;28;20194;-80
2022/08/29 04:26:40;;;;;;;5.53;5.22;;;20.60;76.30;;;;;;5049937;28;20179;-80
2022/08/29 04:29:08;;;;;;;5.80;5.22;;;20.70;77.90;;;;;;5079351;28;20190;-80
2022/08/29 04:31:35;;;;;;;5.80;5.40;;;20.70;77.70;;;;;;5046761;28;20187;-80
2022/08/29 04:34:01;;;;;;;5.13;4.68;;;20.70;78.20;;;;;;5047108;28;20183;-81
2022/08/29 04:36:27;;;;;;;6.25;5.75;;;20.70;77.70;;;;;;5051732;28;20189;-80
2022/08/29 04:38:53;;;;;;;7.90;5.65;;;20.70;78.20;;;;;;5045904;28;20658;-80
2022/08/29 04:41:20;;;;;;;7.03;5.85;;;20.70;78.20;;;;;;5047880;28;20179;-80
2022/08/29 04:43:47;;;;;;;7.03;5.90;;;20.70;78.80;;;;;;5048522;28;20188;-80
2022/08/29 04:46:16;;;;;;;7.15;6.50;;;20.70;78.00;;;;;;5055001;28;20183;-80
2022/08/29 04:48:42;;;;;;;6.45;5.57;;;20.70;77.10;;;;;;5051081;28;20200;-80
2022/08/29 04:51:07;;;;;;;8.05;5.05;;;20.80;77.10;;;;;;5047566;28;20183;-80
2022/08/29 04:53:33;;;;;;;8.13;5.75;;;20.80;77.50;;;;;;5054902;28;20232;-81
2022/08/29 04:56:05;;;;;;;6.65;6.05;;;20.80;79.10;;;;;;5058338;28;20186;-81
2022/08/29 04:58:31;;;;;;;8.52;6.40;;;20.90;77.80;;;;;;5048430;28;20756;-81
2022/08/29 05:00:57;;;;;;;5.47;5.07;;;20.90;77.20;;;;;;5050784;28;20176;-80
2022/08/29 05:03:23;;;;;;;5.85;5.35;;;20.90;77.10;;;;;;5053398;28;20171;-80
2022/08/29 05:06:01;;;;;;;5.72;5.35;;;21.00;78.60;;;;;;5052895;28;20179;-80
2022/08/29 05:08:28;;;;;;;5.95;5.53;;;21.00;77.10;;;;;;5053944;28;20298;-80
2022/08/29 05:10:54;;;;;;;7.00;6.00;;;21.10;78.20;;;;;;5058400;28;20183;-80
2022/08/29 05:13:21;;;;;;;7.55;5.93;;;21.10;78.30;;;;;;5051205;28;20186;-80
2022/08/29 05:15:47;;;;;;;8.95;6.28;;;21.20;77.40;;;;;;5055551;28;20266;-80
2022/08/29 05:18:13;;;;;;;6.15;5.60;;;21.20;77.00;;;;;;5049572;28;20225;-81
2022/08/29 05:20:40;;;;;;;6.55;6.00;;;21.30;77.20;;;;;;5052451;28;20231;-80
2022/08/29 05:23:07;;;;;;;6.72;6.22;;;21.40;79.20;;;;;;5054804;28;20193;-80
2022/08/29 05:25:32;;;;;;;8.95;6.18;;;21.50;78.40;;;;;;5052143;28;20286;-81
2022/08/29 05:27:58;;;;;;;6.65;6.00;;;21.60;77.80;;;;;;5055169;28;20707;-81
2022/08/29 05:30:24;;;;;;;6.90;6.32;;;21.60;77.70;;;;;;5053435;28;20723;-81
2022/08/29 05:32:50;;;;;;;10.90;7.28;;;21.70;77.40;;;;;;5054012;28;20181;-81
2022/08/29 05:35:17;;;;;;;7.38;6.57;;;21.80;77.10;;;;;;5050003;28;20232;-81
2022/08/29 05:37:43;;;;;;;7.90;7.13;;;21.90;77.50;;;;;;5050745;28;20294;-81
2022/08/29 05:40:09;;;;;;;7.65;6.90;;;22.10;78.80;;;;;;5051984;28;20271;-82
2022/08/29 05:42:34;;;;;;;8.05;7.20;;;22.20;77.50;;;;;;5048430;28;20704;-81
2022/08/29 05:45:03;;;;;;;8.82;7.45;;;22.30;77.50;;;;;;5054323;28;20241;-81
2022/08/29 05:47:30;;;;;;;9.27;6.32;;;22.40;76.60;;;;;;5050565;28;20290;-80
2022/08/29 05:49:56;;;;;;;8.05;6.25;;;22.50;76.70;;;;;;5053877;28;20604;-81
2022/08/29 05:52:22;;;;;;;8.82;7.50;;;22.60;77.80;;;;;;5052169;28;20218;-81
2022/08/29 05:54:47;;;;;;;11.60;7.70;;;22.70;77.10;;;;;;5050588;28;20202;-81
2022/08/29 05:57:16;;;;;;;10.38;7.65;;;22.80;77.40;;;;;;5050247;28;20220;-81
2022/08/29 05:59:41;;;;;;;8.30;7.13;;;22.90;76.20;;;;;;5051411;28;20712;-81
2022/08/29 06:02:09;;;;;;;11.07;7.60;;;23.00;76.10;;;;;;5057069;28;20184;-80
2022/08/29 06:04:34;;;;;;;12.98;7.20;;;23.00;76.00;;;;;;5055630;28;20656;-80
2022/08/29 06:07:00;;;;;;;9.85;7.32;;;23.00;76.20;;;;;;5052295;28;20184;-80
2022/08/29 06:09:27;;;;;;;6.97;6.32;;;23.10;76.00;;;;;;5039972;28;20183;-80
2022/08/29 06:11:53;;;;;;;6.75;6.20;;;23.20;75.90;;;;;;5080065;28;20760;-81
2022/08/29 06:14:19;;;;;;;6.15;5.60;;;23.30;76.40;;;;;;5052907;28;20210;-81
2022/08/29 06:16:45;;;;;;;5.90;5.43;;;23.40;75.80;;;;;;5055635;28;20214;-81
2022/08/29 06:19:11;;;;;;;8.15;5.20;;;23.40;74.90;;;;;;5078360;28;20281;-81
2022/08/29 06:21:37;;;;;;;5.88;5.18;;;23.50;74.50;;;;;;5047666;28;20259;-83
2022/08/29 06:24:04;;;;;;;8.75;5.30;;;23.50;74.00;;;;;;5049757;28;20221;-77
2022/08/29 06:26:33;;;;;;;5.85;5.28;;;23.60;73.60;;;;;;5048003;28;20617;-78
2022/08/29 06:28:58;;;;;;;8.57;5.20;;;23.60;73.70;;;;;;5047350;28;20631;-77
2022/08/29 06:31:28;;;;;;;5.57;5.22;;;23.60;74.00;;;;;;5049176;28;20188;-77
2022/08/29 06:33:56;;;;;;;5.30;4.80;;;23.70;73.50;;;;;;5051444;28;20183;-77
2022/08/29 06:36:24;;;;;;;6.50;5.50;;;23.70;73.60;;;;;;5046954;28;20214;-77
2022/08/29 06:38:50;;;;;;;8.60;5.57;;;23.80;73.70;;;;;;5048915;28;20214;-78
2022/08/29 06:41:18;;;;;;;5.72;5.22;;;23.80;73.50;;;;;;5050887;28;20249;-77
2022/08/29 06:43:44;;;;;;;8.38;5.80;;;23.90;73.40;;;;;;5049750;28;20199;-77
2022/08/29 06:46:40;;;;;;;5.35;4.93;;;24.00;73.30;;;;;;5049227;28;21022;-77
2022/08/29 06:49:09;;;;;;;5.82;5.13;;;24.10;73.20;;;;;;5019372;28;20246;-78
2022/08/29 06:51:37;;;;;;;6.13;5.15;;;24.20;73.00;;;;;;5021004;28;20188;-80
2022/08/29 06:54:06;;;;;;;7.60;5.55;;;24.30;72.50;;;;;;5020839;28;20255;-78
2022/08/29 06:56:32;;;;;;;5.95;5.55;;;24.40;72.40;;;;;;5021987;28;20180;-77
2022/08/29 06:58:59;;;;;;;7.95;5.97;;;24.50;71.90;;;;;;5017991;28;20883;-76
2022/08/29 07:01:25;;;;;;;5.75;5.32;;;24.60;72.20;;;;;;5019890;28;20188;-76
2022/08/29 07:03:57;;;;;;;5.70;5.30;;;24.70;71.60;;;;;;5021195;28;20972;-76
2022/08/29 07:06:24;;;;;;;6.50;5.35;;;24.80;71.40;;;;;;5019265;28;20193;-77
2022/08/29 07:08:50;;;;;;;4.95;4.50;;;24.70;71.30;;;;;;5020619;28;20196;-77
2022/08/29 07:11:16;;;;;;;4.97;4.57;;;24.80;71.40;;;;;;5020999;28;20234;-77
2022/08/29 07:13:42;;;;;;;7.72;5.63;;;24.80;71.50;;;;;;5021923;28;20570;-77
2022/08/29 07:16:10;;;;;;;7.53;5.47;;;24.90;71.40;;;;;;5016968;28;20250;-77
2022/08/29 07:18:36;;;;;;;6.28;5.03;;;24.90;71.40;;;;;;5014786;28;20249;-77
2022/08/29 07:21:10;;;;;;;7.75;5.68;;;25.00;71.50;;;;;;5020763;28;20266;-78
2022/08/29 07:23:36;;;;;;;5.53;5.18;;;25.10;70.70;;;;;;5021302;28;20602;-77
2022/08/29 07:26:27;;;;;;;6.03;5.53;;;25.10;71.20;;;;;;5041441;28;20195;-82
2022/08/29 07:28:57;;;;;;;5.55;5.05;;;25.20;71.70;;;;;;5044276;28;20459;-77
2022/08/29 07:31:23;;;;;;;9.45;5.60;;;25.30;71.00;;;;;;5045956;28;20186;-77
2022/08/29 07:33:49;;;;;;;6.13;5.65;;;25.30;70.80;;;;;;5048038;28;20180;-77
2022/08/29 07:36:14;;;;;;;6.45;5.65;;;25.30;71.40;;;;;;5046017;28;20254;-77
2022/08/29 07:38:40;;;;;;;8.65;6.30;;;25.30;71.00;;;;;;5045044;28;20301;-77
2022/08/29 07:41:09;;;;;;;6.95;6.25;;;25.30;70.90;;;;;;5047098;28;20275;-78
2022/08/29 07:43:35;;;;;;;6.50;5.97;;;25.30;70.40;;;;;;5046937;28;20187;-77
2022/08/29 07:46:13;;;;;;;6.57;5.85;;;25.40;70.50;;;;;;5048072;28;20186;-77
2022/08/29 07:48:39;;;;;;;7.07;6.00;;;25.50;70.30;;;;;;5044647;28;20186;-77
2022/08/29 07:51:10;;;;;;;7.13;5.45;;;25.60;70.90;;;;;;5045464;28;20572;-77
2022/08/29 07:53:36;;;;;;;6.80;5.63;;;25.70;70.60;;;;;;5048259;28;20188;-78
2022/08/29 07:56:06;;;;;;;5.90;5.40;;;25.80;70.10;;;;;;5054032;28;20757;-78
2022/08/29 07:58:32;;;;;;;6.32;5.60;;;26.00;69.90;;;;;;5043266;28;20207;-77
2022/08/29 08:00:58;;;;;;;5.22;4.82;;;26.10;69.90;;;;;;5043740;28;20207;-78
2022/08/29 08:03:25;;;;;;;10.13;5.90;;;26.20;70.60;;;;;;5048661;28;20183;-77
2022/08/29 08:05:52;;;;;;;7.13;5.10;;;26.40;70.40;;;;;;5048928;28;20268;-77
2022/08/29 08:08:18;;;;;;;11.07;5.68;;;26.50;69.90;;;;;;5045079;28;20665;-77
2022/08/29 08:10:43;;;;;;;7.95;5.25;;;26.60;69.90;;;;;;5044540;28;20183;-77
2022/08/29 08:13:09;;;;;;;5.07;4.78;;;26.70;69.80;;;;;;5047053;28;20179;-77
2022/08/29 08:15:37;;;;;;;7.43;4.85;;;26.90;70.40;;;;;;5049585;28;20190;-79
2022/08/29 08:18:03;;;;;;;5.47;5.05;;;27.00;68.90;;;;;;5047098;28;20218;-78
2022/08/29 08:20:29;;;;;;;6.97;5.10;;;27.10;69.40;;;;;;5049615;28;20203;-78
2022/08/29 08:22:56;;;;;;;7.47;5.55;;;27.20;68.80;;;;;;5048981;28;20183;-78
2022/08/29 08:25:22;;;;;;;4.90;4.70;;;27.30;68.40;;;;;;5046784;28;20186;-78
2022/08/29 08:27:48;;;;;;;8.00;5.82;;;27.40;69.20;;;;;;5049411;28;20187;-78
2022/08/29 08:30:14;;;;;;;6.25;5.85;;;27.50;68.70;;;;;;5056297;28;20584;-78
2022/08/29 08:32:40;;;;;;;5.78;5.00;;;27.70;67.80;;;;;;5050748;28;20179;-78
2022/08/29 08:35:06;;;;;;;6.57;5.95;;;27.80;67.60;;;;;;5050355;28;20244;-78
2022/08/29 08:37:31;;;;;;;11.18;5.55;;;27.90;67.30;;;;;;5050609;28;20847;-79
2022/08/29 08:39:57;;;;;;;5.13;4.68;;;28.10;67.40;;;;;;5048814;28;20240;-79
2022/08/29 08:42:31;;;;;;;6.55;5.45;;;28.20;66.70;;;;;;5049745;28;20696;-78
2022/08/29 08:45:07;;;;;;;6.97;5.30;;;28.10;66.80;;;;;;5056619;28;20195;-77
2022/08/29 08:47:39;;;;;;;6.60;5.05;;;28.20;66.50;;;;;;5050510;28;21052;-77
2022/08/29 08:50:16;;;;;;;5.80;5.35;;;28.10;66.40;;;;;;5054356;28;20187;-78
2022/08/29 08:52:58;;;;;;;5.70;5.30;;;28.10;66.30;;;;;;5045806;28;20579;-77
2022/08/29 08:55:45;;;;;;;6.25;5.05;;;28.10;66.70;;;;;;5047908;28;20286;-79
2022/08/29 08:58:14;;;;;;;5.28;4.97;;;27.90;66.60;;;;;;5053587;28;20211;-79
2022/08/29 09:00:59;;;;;;;6.95;5.35;;;28.10;66.80;;;;;;5046190;28;20233;-80
2022/08/29 09:04:03;;;;;;;5.90;5.35;;;28.00;66.80;;;;;;5050070;28;20175;-79
2022/08/29 09:06:31;;;;;;;8.95;5.40;;;28.00;66.80;;;;;;5043648;28;20320;-80
2022/08/29 09:09:06;;;;;;;13.63;5.57;;;28.00;66.80;;;;;;5049225;28;20191;-80
2022/08/29 09:11:53;;;;;;;6.20;5.65;;;27.90;66.90;;;;;;5050574;28;20197;-79
2022/08/29 09:14:36;;;;;;;8.57;5.20;;;27.90;66.40;;;;;;5065319;28;20191;-80
2022/08/29 09:17:02;;;;;;;5.20;4.85;;;27.90;66.80;;;;;;5053411;28;20183;-81
2022/08/29 09:19:29;;;;;;;7.65;5.97;;;27.80;67.20;;;;;;5052333;28;20190;-81
2022/08/29 09:22:04;;;;;;;5.35;4.93;;;27.80;67.30;;;;;;5050236;28;20191;-82
2022/08/29 09:24:46;;;;;;;9.52;6.03;;;27.80;66.40;;;;;;5053714;28;20198;-80
2022/08/29 09:27:24;;;;;;;5.90;5.13;;;27.80;66.60;;;;;;5046427;28;20680;-80
2022/08/29 09:30:19;;;;;;;9.38;5.47;;;27.90;67.30;;;;;;5051177;28;20179;-80
2022/08/29 09:33:00;;;;;;;7.65;5.07;;;27.80;67.40;;;;;;5047902;28;20190;-80
2022/08/29 09:35:41;;;;;;;8.85;6.10;;;27.80;68.00;;;;;;5047878;28;20182;-80
2022/08/29 09:38:16;;;;;;;5.60;5.28;;;27.80;68.20;;;;;;5046849;28;20219;-82
2022/08/29 09:40:54;;;;;;;6.20;5.68;;;27.80;67.60;;;;;;5050244;28;20179;-80
2022/08/29 09:43:29;;;;;;;9.77;5.32;;;27.80;68.30;;;;;;5054285;28;20194;-82
2022/08/29 09:46:09;;;;;;;6.22;5.70;;;27.90;67.90;;;;;;5052503;28;20191;-78
2022/08/29 09:49:10;;;;;;;12.10;6.00;;;28.00;68.30;;;;;;5058577;28;20922;-81
2022/08/29 09:51:38;;;;;;;5.75;5.22;;;28.10;67.50;;;;;;5012856;28;20320;-80
2022/08/29 09:54:15;;;;;;;7.85;5.70;;;28.10;67.80;;;;;;5027711;28;20294;-75
2022/08/29 09:57:07;;;;;;;7.60;5.82;;;28.20;67.90;;;;;;5028942;28;21625;-80
2022/08/29 09:59:36;;;;;;;8.40;5.53;;;28.30;67.90;;;;;;4948241;28;20857;-76
2022/08/29 10:02:36;;;;;;;6.40;5.80;;;28.30;67.10;;;;;;4953026;28;20277;-79
2022/08/29 10:05:08;;;;;;;6.43;5.90;;;28.20;68.00;;;;;;4950632;28;20207;-77
2022/08/29 10:07:51;;;;;;;8.20;6.10;;;27.90;67.80;;;;;;4949791;28;20227;-78
2022/08/29 10:10:20;;;;;;;6.43;5.95;;;27.80;68.50;;;;;;4945488;28;20201;-78
2022/08/29 10:12:52;;;;;;;8.85;5.75;;;27.80;68.60;;;;;;4947009;28;20195;-79
2022/08/29 10:15:32;;;;;;;8.27;6.88;;;27.80;69.70;;;;;;4942780;28;20202;-79
2022/08/29 10:18:22;;;;;;;8.48;6.60;;;27.80;69.90;;;;;;4943369;28;20222;-79
2022/08/29 10:20:56;;;;;;;7.50;6.55;;;27.70;69.10;;;;;;4948138;28;20241;-78
2022/08/29 10:23:40;;;;;;;6.57;5.93;;;27.70;69.40;;;;;;4945360;28;20211;-80
2022/08/29 10:26:32;;;;;;;6.20;5.82;;;27.90;69.60;;;;;;4943581;28;20190;-81
2022/08/29 10:29:33;;;;;;;6.20;5.47;;;28.00;69.10;;;;;;4965817;28;21060;-81
2022/08/29 10:32:15;;;;;;;7.95;5.35;;;28.00;68.00;;;;;;4950643;28;20190;-80
2022/08/29 10:34:53;;;;;;;6.63;5.80;;;28.00;67.50;;;;;;4943684;28;20193;-80
2022/08/29 10:37:45;;;;;;;5.93;5.40;;;28.00;67.20;;;;;;5003599;28;20220;-80
2022/08/29 10:40:37;;;;;;;5.68;5.25;;;28.00;68.10;;;;;;5008356;28;20207;-76
2022/08/29 10:43:26;;;;;;;8.27;5.40;;;28.00;67.60;;;;;;5002009;28;20196;-79
2022/08/29 10:46:35;;;;;;;5.75;5.30;;;27.90;67.60;;;;;;5004707;28;20189;-80
2022/08/29 10:49:06;;;;;;;11.30;5.65;;;27.80;68.70;;;;;;5002269;28;20756;-81
2022/08/29 10:51:37;;;;;;;5.85;5.43;;;27.70;68.10;;;;;;5000102;28;20196;-81
2022/08/29 10:54:11;;;;;;;6.25;5.40;;;27.60;68.10;;;;;;5005940;28;20215;-81
2022/08/29 10:56:42;;;;;;;6.43;5.85;;;27.50;68.60;;;;;;5005952;28;20278;-80
2022/08/29 10:59:41;;;;;;;6.35;5.63;;;27.40;68.10;;;;;;5002719;28;20618;-80
2022/08/29 11:02:28;;;;;;;5.53;5.22;;;27.30;68.80;;;;;;4995474;28;20205;-79
2022/08/29 11:04:58;;;;;;;13.52;8.38;;;27.20;69.40;;;;;;5006504;28;20670;-82
2022/08/29 11:07:32;;;;;;;5.80;5.30;;;27.00;71.00;;;;;;5003801;28;20189;-81
2022/08/29 11:10:03;;;;;;;8.25;6.65;;;26.80;69.20;;;;;;5044934;28;20599;-78
2022/08/29 11:12:47;;;;;;;7.47;6.70;;;26.80;69.00;;;;;;5047627;28;20190;-80
2022/08/29 11:15:25;;;;;;;5.70;5.10;;;26.80;69.40;;;;;;5048255;28;20265;-80
2022/08/29 11:18:05;;;;;;;6.07;5.57;;;26.70;69.00;;;;;;5051843;28;20213;-80
2022/08/29 11:20:37;;;;;;;5.80;5.25;;;26.70;69.30;;;;;;5045796;28;20184;-80
2022/08/29 11:23:40;;;;;;;5.47;5.05;;;26.80;69.80;;;;;;5051702;28;20190;-80
2022/08/29 11:26:43;;;;;;;7.93;4.55;;;26.80;70.70;;;;;;5043812;28;20230;-78
2022/08/29 11:29:33;;;;;;;6.55;4.60;;;26.90;70.70;;;;;;4999581;28;20640;-79
2022/08/29 11:32:31;;;;;;;7.50;5.18;;;27.30;70.60;;;;;;5004977;28;20199;-84
2022/08/29 11:35:10;;;;;;;5.60;5.07;;;27.60;69.00;;;;;;5002383;28;20701;-79
2022/08/29 11:37:54;;;;;;;5.65;5.20;;;28.10;68.20;;;;;;5003614;28;20229;-81
2022/08/29 11:40:38;;;;;;;5.82;5.38;;;28.60;68.40;;;;;;5003862;28;20709;-84
2022/08/29 11:43:07;;;;;;;5.47;5.18;;;29.00;67.10;;;;;;5003937;28;20216;-83
2022/08/29 11:45:37;;;;;;;7.03;5.53;;;29.60;65.40;;;;;;4990800;28;20204;-81
2022/08/29 11:48:17;;;;;;;5.35;4.85;;;30.20;65.20;;;;;;5004107;28;20192;-78
2022/08/29 11:50:43;;;;;;;5.97;5.13;;;31.10;66.80;;;;;;5005215;28;20189;-79
2022/08/29 11:53:32;;;;;;;5.53;5.13;;;32.10;60.90;;;;;;5002825;28;20193;-80
2022/08/29 11:56:13;;;;;;;5.05;4.60;;;32.90;59.30;;;;;;4985290;28;20346;-82
2022/08/29 11:58:47;;;;;;;4.45;4.13;;;33.60;56.60;;;;;;5007669;28;20205;-80
2022/08/29 12:01:34;;;;;;;4.57;4.13;;;33.80;55.70;;;;;;5004257;28;20223;-80
2022/08/29 12:04:03;;;;;;;4.50;4.15;;;34.00;55.50;;;;;;4998790;28;20189;-80
2022/08/29 12:06:36;;;;;;;4.47;4.28;;;34.20;57.20;;;;;;5025332;28;20814;-79
2022/08/29 12:09:11;;;;;;;4.43;4.03;;;34.50;56.30;;;;;;5062698;28;20898;-77
2022/08/29 12:12:01;;;;;;;4.28;4.07;;;34.80;56.50;;;;;;5045324;28;20186;-79
2022/08/29 12:14:35;;;;;;;8.63;4.35;;;35.20;54.70;;;;;;5046970;28;20179;-78
2022/08/29 12:17:05;;;;;;;4.63;3.88;;;35.50;55.10;;;;;;5046336;28;20281;-76
2022/08/29 12:19:48;;;;;;;3.97;3.88;;;35.50;52.70;;;;;;5047081;28;20595;-77
2022/08/29 12:22:51;;;;;;;4.32;3.72;;;35.40;52.50;;;;;;5042417;28;20254;-79
2022/08/29 12:25:28;;;;;;;4.15;3.83;;;35.00;52.50;;;;;;5047005;28;20580;-77
2022/08/29 12:27:59;;;;;;;4.70;4.25;;;34.70;53.90;;;;;;5048442;28;20579;-77
2022/08/29 12:30:27;;;;;;;4.20;4.00;;;34.40;52.70;;;;;;5043194;28;20597;-79
2022/08/29 12:33:17;;;;;;;4.03;3.83;;;34.00;53.10;;;;;;5046699;28;20178;-77
2022/08/29 12:35:54;;;;;;;4.60;4.03;;;33.60;55.50;;;;;;5048427;28;20301;-78
2022/08/29 12:38:32;;;;;;;4.63;4.30;;;33.20;55.20;;;;;;5043077;28;20222;-78
2022/08/29 12:41:09;;;;;;;4.18;4.00;;;32.90;56.10;;;;;;5044824;28;20672;-78
2022/08/29 12:43:44;;;;;;;5.03;4.63;;;32.70;57.10;;;;;;5047794;28;20190;-78
2022/08/29 12:46:35;;;;;;;5.45;5.05;;;32.30;56.20;;;;;;5041211;28;20270;-77
2022/08/29 12:49:22;;;;;;;9.23;5.55;;;32.10;57.00;;;;;;5039817;28;20188;-78
2022/08/29 12:51:54;;;;;;;4.72;4.45;;;32.10;57.70;;;;;;5046539;28;20270;-78
2022/08/29 12:54:36;;;;;;;4.93;4.60;;;32.00;58.00;;;;;;5046375;28;20736;-77
2022/08/29 12:57:05;;;;;;;5.07;4.88;;;32.00;57.70;;;;;;5043404;28;20179;-77
2022/08/29 12:59:33;;;;;;;5.22;5.03;;;32.00;58.30;;;;;;5044783;28;20733;-78
2022/08/29 13:01:59;;;;;;;5.15;4.85;;;31.90;58.40;;;;;;5051105;28;20187;-78
2022/08/29 13:04:32;;;;;;;5.22;4.95;;;31.80;58.90;;;;;;5046210;28;20180;-78
2022/08/29 13:07:05;;;;;;;6.13;4.88;;;31.60;59.10;;;;;;5046324;28;20778;-77
2022/08/29 13:09:41;;;;;;;7.45;5.22;;;31.40;59.60;;;;;;5050050;28;20340;-77
2022/08/29 13:12:09;;;;;;;5.03;4.72;;;31.10;60.00;;;;;;5045889;28;20948;-78